createdAt,value
2023-05-19T00:01:33.263Z,12.77
2023-05-19T00:04:05.242Z,12.77
2023-05-19T00:06:33.214Z,12.72
2023-05-19T00:09:05.908Z,12.73
2023-05-19T00:11:38.058Z,12.80
2023-05-19T00:14:07.953Z,12.76
2023-05-19T00:16:36.253Z,12.75
2023-05-19T00:19:05.394Z,12.72
2023-05-19T00:21:32.979Z,12.63
2023-05-19T00:23:59.992Z,12.77
2023-05-19T00:26:28.182Z,12.79
2023-05-19T00:28:55.621Z,12.69
2023-05-19T00:31:22.655Z,12.77
2023-05-19T00:33:49.849Z,12.70
2023-05-19T00:36:16.828Z,12.72
2023-05-19T00:38:43.972Z,12.70
2023-05-19T00:41:11.920Z,12.70
2023-05-19T00:43:38.836Z,12.60
2023-05-19T00:46:07.412Z,12.70
2023-05-19T00:48:34.765Z,12.62
2023-05-19T00:51:04.939Z,12.68
2023-05-19T00:53:33.575Z,12.64
2023-05-19T00:56:01.347Z,12.72
2023-05-19T00:58:30.471Z,12.74
2023-05-19T01:01:07.005Z,12.55
2023-05-19T01:03:36.190Z,12.68
2023-05-19T01:06:07.463Z,12.66
2023-05-19T01:08:37.269Z,12.66
2023-05-19T01:11:05.565Z,12.64
2023-05-19T01:13:33.437Z,12.58
2023-05-19T01:16:24.663Z,12.53
2023-05-19T01:19:36.992Z,12.64
2023-05-19T01:22:26.973Z,12.63
2023-05-19T01:25:23.904Z,12.47
2023-05-19T01:28:05.656Z,12.51
2023-05-19T01:30:40.018Z,12.43
2023-05-19T01:33:09.620Z,12.72
2023-05-19T01:35:39.119Z,12.60
2023-05-19T01:38:09.999Z,12.67
2023-05-19T01:40:39.788Z,12.56
2023-05-19T01:43:09.151Z,12.57
2023-05-19T01:45:37.014Z,12.60
2023-05-19T01:48:05.055Z,12.48
2023-05-19T01:50:33.239Z,12.50
2023-05-19T01:53:01.403Z,12.56
2023-05-19T01:55:28.618Z,12.57
2023-05-19T01:58:11.560Z,12.56
2023-05-19T02:00:38.527Z,12.54
2023-05-19T02:03:08.563Z,12.56
2023-05-19T02:05:46.001Z,12.53
2023-05-19T02:08:40.138Z,12.51
2023-05-19T02:11:54.644Z,12.41
2023-05-19T02:14:29.828Z,12.53
2023-05-19T02:16:59.223Z,12.58
2023-05-19T02:19:32.208Z,12.56
2023-05-19T02:21:59.308Z,12.56
2023-05-19T02:24:26.700Z,12.48
2023-05-19T02:26:54.774Z,12.48
2023-05-19T02:29:22.058Z,12.47
2023-05-19T02:31:49.241Z,12.33
2023-05-19T02:34:16.540Z,12.41
2023-05-19T02:36:43.534Z,12.39
2023-05-19T02:39:11.242Z,12.50
2023-05-19T02:41:39.230Z,12.51
2023-05-19T02:44:06.295Z,12.54
2023-05-19T02:46:33.747Z,12.55
2023-05-19T02:49:00.859Z,12.50
2023-05-19T02:51:27.828Z,12.59
2023-05-19T02:53:54.782Z,12.53
2023-05-19T02:56:21.996Z,12.59
2023-05-19T02:58:48.976Z,12.62
2023-05-19T03:01:16.676Z,12.48
2023-05-19T03:03:43.975Z,12.61
2023-05-19T03:06:11.352Z,12.44
2023-05-19T03:08:40.753Z,12.59
2023-05-19T03:11:09.289Z,12.49
2023-05-19T03:13:36.729Z,12.47
2023-05-19T03:16:03.780Z,12.45
2023-05-19T03:18:31.086Z,12.38
2023-05-19T03:20:57.947Z,12.32
2023-05-19T03:23:25.288Z,12.32
2023-05-19T03:25:54.270Z,12.32
2023-05-19T03:28:21.372Z,12.24
2023-05-19T03:30:50.168Z,12.26
2023-05-19T03:33:17.116Z,12.28
2023-05-19T03:35:47.345Z,12.19
2023-05-19T03:38:14.324Z,12.18
2023-05-19T03:40:41.887Z,12.17
2023-05-19T03:43:08.810Z,12.24
2023-05-19T03:45:35.701Z,12.08
2023-05-19T03:48:02.558Z,12.15
2023-05-19T03:50:31.718Z,12.27
2023-05-19T03:52:58.870Z,12.27
2023-05-19T03:55:26.126Z,12.29
2023-05-19T03:57:53.175Z,12.35
2023-05-19T04:00:20.633Z,12.36
2023-05-19T04:02:47.876Z,12.40
2023-05-19T04:05:14.972Z,12.43
2023-05-19T04:07:43.047Z,12.42
2023-05-19T04:10:10.447Z,12.47
2023-05-19T04:12:37.429Z,12.53
2023-05-19T04:15:06.248Z,12.51
2023-05-19T04:17:33.187Z,12.50
2023-05-19T04:20:00.173Z,12.54
2023-05-19T04:22:27.248Z,12.45
2023-05-19T04:24:55.104Z,12.57
2023-05-19T04:27:22.314Z,12.61
2023-05-19T04:29:50.069Z,12.49
2023-05-19T04:32:19.860Z,12.66
2023-05-19T04:34:46.749Z,12.66
2023-05-19T04:37:16.480Z,12.64
2023-05-19T04:39:45.305Z,12.73
2023-05-19T04:42:13.369Z,12.84
2023-05-19T04:44:40.345Z,12.77
2023-05-19T04:47:08.928Z,12.92
2023-05-19T04:49:38.985Z,12.94
2023-05-19T04:52:11.062Z,13.08
2023-05-19T04:54:39.681Z,13.20
2023-05-19T04:57:06.715Z,13.24
2023-05-19T04:59:33.916Z,13.40
2023-05-19T05:02:00.914Z,13.32
2023-05-19T05:04:28.471Z,13.42
2023-05-19T05:06:55.625Z,13.59
2023-05-19T05:09:22.659Z,13.63
2023-05-19T05:11:50.210Z,13.89
2023-05-19T05:14:17.602Z,13.81
2023-05-19T05:16:45.014Z,13.97
2023-05-19T05:19:12.443Z,13.86
2023-05-19T05:21:39.754Z,13.76
2023-05-19T05:24:07.298Z,13.80
2023-05-19T05:26:35.722Z,13.84
2023-05-19T05:29:03.893Z,13.93
2023-05-19T05:31:31.562Z,13.89
2023-05-19T05:33:58.925Z,14.03
2023-05-19T05:36:25.992Z,14.03
2023-05-19T05:38:52.926Z,13.95
2023-05-19T05:41:20.088Z,14.01
2023-05-19T05:43:47.128Z,14.01
2023-05-19T05:46:14.192Z,14.09
2023-05-19T05:48:42.807Z,14.28
2023-05-19T05:51:10.066Z,14.43
2023-05-19T05:53:44.610Z,14.50
2023-05-19T05:56:12.484Z,14.71
2023-05-19T05:58:40.855Z,14.75
2023-05-19T06:01:11.505Z,14.86
2023-05-19T06:03:44.511Z,15.17
2023-05-19T06:06:12.000Z,15.25
2023-05-19T06:08:38.992Z,15.36
2023-05-19T06:11:09.393Z,15.33
2023-05-19T06:13:36.979Z,15.54
2023-05-19T06:16:04.762Z,15.45
2023-05-19T06:18:33.060Z,15.60
2023-05-19T06:20:59.935Z,15.50
2023-05-19T06:23:29.210Z,15.53
2023-05-19T06:25:56.768Z,15.50
2023-05-19T06:28:23.735Z,15.64
2023-05-19T06:30:50.795Z,15.64
2023-05-19T06:33:17.660Z,15.54
2023-05-19T06:35:44.591Z,15.55
2023-05-19T06:38:11.627Z,15.66
2023-05-19T06:40:38.664Z,15.60
2023-05-19T06:43:05.711Z,15.75
2023-05-19T06:45:33.319Z,15.88
2023-05-19T06:48:00.785Z,15.91
2023-05-19T06:50:30.433Z,16.21
2023-05-19T06:52:58.525Z,16.34
2023-05-19T06:55:25.699Z,16.21
2023-05-19T06:57:52.664Z,15.96
2023-05-19T07:00:22.132Z,16.31
2023-05-19T07:02:50.935Z,16.48
2023-05-19T07:05:18.401Z,16.73
2023-05-19T07:07:45.348Z,16.48
2023-05-19T07:10:12.225Z,16.74
2023-05-19T07:12:39.120Z,16.72
2023-05-19T07:15:06.782Z,16.63
2023-05-19T07:17:33.656Z,16.86
2023-05-19T07:20:01.701Z,16.96
2023-05-19T07:22:28.864Z,17.13
2023-05-19T07:24:57.193Z,17.49
2023-05-19T07:27:24.065Z,17.59
2023-05-19T07:29:51.171Z,17.67
2023-05-19T07:32:18.689Z,17.90
2023-05-19T07:34:46.049Z,18.19
2023-05-19T07:37:13.014Z,18.17
2023-05-19T07:39:39.920Z,18.18
2023-05-19T07:42:06.811Z,18.41
2023-05-19T07:44:34.768Z,18.38
2023-05-19T07:47:01.777Z,18.48
2023-05-19T07:49:28.616Z,18.65
2023-05-19T07:51:55.640Z,18.61
2023-05-19T07:54:27.589Z,18.79
2023-05-19T07:56:54.498Z,18.81
2023-05-19T07:59:21.484Z,18.54
2023-05-19T08:01:48.372Z,18.92
2023-05-19T08:04:15.564Z,18.96
2023-05-19T08:06:44.473Z,18.86
2023-05-19T08:09:12.077Z,18.69
2023-05-19T08:11:39.225Z,18.95
2023-05-19T08:14:06.333Z,19.15
2023-05-19T08:16:33.256Z,19.30
2023-05-19T08:19:02.749Z,19.69
2023-05-19T08:21:29.818Z,19.85
2023-05-19T08:23:57.258Z,20.11
2023-05-19T08:26:24.134Z,19.97
2023-05-19T08:28:51.124Z,19.94
2023-05-19T08:31:18.551Z,19.79
2023-05-19T08:33:45.931Z,19.89
2023-05-19T08:36:12.937Z,20.00
2023-05-19T08:38:39.954Z,20.23
2023-05-19T08:41:07.136Z,20.00
2023-05-19T08:43:34.330Z,20.31
2023-05-19T08:46:01.254Z,20.75
2023-05-19T08:48:31.387Z,20.48
2023-05-19T08:51:11.918Z,20.46
2023-05-19T08:53:44.101Z,21.19
2023-05-19T08:56:23.106Z,21.47
2023-05-19T08:58:51.187Z,21.40
2023-05-19T09:01:19.995Z,22.25
2023-05-19T09:03:50.025Z,22.10
2023-05-19T09:06:17.513Z,21.86
2023-05-19T09:08:44.833Z,21.99
2023-05-19T09:11:12.270Z,23.01
2023-05-19T09:13:39.600Z,23.64
2023-05-19T09:16:08.324Z,24.30
2023-05-19T09:18:39.080Z,24.80
2023-05-19T09:21:07.313Z,23.85
2023-05-19T09:23:34.522Z,24.15
2023-05-19T09:26:04.511Z,24.58
2023-05-19T09:28:35.830Z,24.40
2023-05-19T09:31:07.854Z,25.29
2023-05-19T09:33:37.105Z,24.85
2023-05-19T09:36:08.657Z,24.79
2023-05-19T09:38:36.309Z,23.90
2023-05-19T09:41:05.870Z,24.38
2023-05-19T09:43:34.029Z,23.41
2023-05-19T09:46:11.838Z,22.10
2023-05-19T09:48:39.961Z,23.14
2023-05-19T09:51:10.435Z,23.64
2023-05-19T09:53:39.167Z,23.99
2023-05-19T09:56:08.837Z,24.53
2023-05-19T09:58:36.805Z,23.87
2023-05-19T10:01:05.473Z,23.24
2023-05-19T10:03:33.926Z,22.35
2023-05-19T10:06:09.304Z,23.58
2023-05-19T10:08:37.785Z,25.13
2023-05-19T10:11:06.644Z,26.02
2023-05-19T10:13:38.680Z,26.31
2023-05-19T10:16:06.763Z,26.65
2023-05-19T10:18:33.981Z,25.37
2023-05-19T10:21:02.502Z,25.10
2023-05-19T10:23:29.483Z,24.04
2023-05-19T10:25:58.539Z,22.85
2023-05-19T10:28:32.001Z,22.33
2023-05-19T10:31:01.828Z,22.16
2023-05-19T10:33:55.906Z,23.03
2023-05-19T10:36:39.903Z,24.70
2023-05-19T10:39:19.408Z,26.09
2023-05-19T10:41:47.492Z,26.40
2023-05-19T10:44:53.511Z,25.62
2023-05-19T10:47:24.995Z,24.60
2023-05-19T10:49:55.795Z,24.11
2023-05-19T10:52:26.838Z,24.24
2023-05-19T10:54:54.913Z,23.89
2023-05-19T10:57:30.682Z,23.88
2023-05-19T10:59:58.104Z,22.93
2023-05-19T11:02:56.278Z,23.52
2023-05-19T11:05:29.641Z,25.67
2023-05-19T11:08:05.821Z,27.57
2023-05-19T11:10:32.745Z,28.86
2023-05-19T11:12:59.999Z,28.43
2023-05-19T11:15:28.127Z,28.86
2023-05-19T11:17:55.388Z,29.35
2023-05-19T11:20:26.906Z,29.35
2023-05-19T11:23:20.348Z,30.04
2023-05-19T11:25:52.256Z,29.55
2023-05-19T11:28:20.870Z,29.68
2023-05-19T11:30:52.281Z,30.35
2023-05-19T11:33:21.627Z,30.37
2023-05-19T11:35:51.189Z,32.04
2023-05-19T11:38:20.722Z,32.22
2023-05-19T11:40:49.933Z,31.85
2023-05-19T11:43:16.929Z,30.89
2023-05-19T11:45:43.996Z,31.41
2023-05-19T11:48:16.107Z,31.36
2023-05-19T11:50:47.047Z,30.72
2023-05-19T11:53:14.941Z,30.95
2023-05-19T11:55:50.778Z,29.74
2023-05-19T11:58:18.225Z,28.81
2023-05-19T12:00:47.932Z,27.69
2023-05-19T12:03:15.278Z,29.21
2023-05-19T12:05:49.526Z,29.73
2023-05-19T12:08:18.762Z,30.01
2023-05-19T12:10:52.073Z,30.20
2023-05-19T12:13:19.622Z,30.76
2023-05-19T12:15:46.560Z,29.20
2023-05-19T12:18:13.587Z,28.88
2023-05-19T12:20:40.795Z,29.63
2023-05-19T12:23:07.897Z,30.91
2023-05-19T12:25:35.323Z,28.39
2023-05-19T12:28:05.497Z,28.51
2023-05-19T12:30:33.574Z,28.28
2023-05-19T12:33:02.391Z,26.44
2023-05-19T12:35:34.298Z,27.62
2023-05-19T12:38:05.071Z,29.43
2023-05-19T12:40:34.142Z,30.23
2023-05-19T12:43:01.858Z,30.97
2023-05-19T12:45:29.219Z,32.10
2023-05-19T12:47:56.910Z,31.89
2023-05-19T12:50:31.164Z,31.28
2023-05-19T12:52:59.968Z,30.18
2023-05-19T12:55:27.219Z,29.61
2023-05-19T12:57:57.309Z,30.89
2023-05-19T13:00:28.411Z,30.88
2023-05-19T13:03:07.433Z,31.40
2023-05-19T13:05:39.923Z,31.80
2023-05-19T13:08:09.332Z,32.11
2023-05-19T13:10:38.167Z,32.21
2023-05-19T13:13:08.063Z,32.86
2023-05-19T13:15:39.459Z,33.53
2023-05-19T13:18:09.139Z,32.60
2023-05-19T13:20:38.538Z,32.24
2023-05-19T13:23:05.969Z,30.45
2023-05-19T13:25:34.528Z,28.82
2023-05-19T13:28:05.814Z,30.28
2023-05-19T13:30:38.645Z,30.78
2023-05-19T13:33:06.411Z,31.49
2023-05-19T13:35:39.453Z,31.65
2023-05-19T13:38:07.992Z,30.80
2023-05-19T13:40:35.311Z,32.27
2023-05-19T13:43:03.666Z,33.03
2023-05-19T13:45:30.873Z,33.00
2023-05-19T13:47:57.972Z,32.50
2023-05-19T13:50:25.102Z,29.89
2023-05-19T13:52:52.323Z,31.28
2023-05-19T13:55:19.547Z,30.56
2023-05-19T13:57:46.570Z,30.48
2023-05-19T14:00:13.972Z,31.36
2023-05-19T14:02:41.125Z,32.23
2023-05-19T14:05:08.779Z,31.58
2023-05-19T14:07:36.019Z,32.59
2023-05-19T14:10:05.736Z,33.93
2023-05-19T14:12:41.375Z,34.45
2023-05-19T14:15:14.649Z,33.95
2023-05-19T14:17:41.908Z,34.31
2023-05-19T14:20:09.781Z,33.05
2023-05-19T14:22:36.790Z,32.50
2023-05-19T14:25:03.821Z,31.62
2023-05-19T14:27:30.900Z,32.70
2023-05-19T14:29:57.997Z,33.08
2023-05-19T14:32:25.905Z,33.62
2023-05-19T14:34:53.782Z,34.03
2023-05-19T14:37:20.612Z,34.33
2023-05-19T14:39:47.549Z,35.00
2023-05-19T14:42:14.485Z,35.01
2023-05-19T14:44:41.396Z,32.20
2023-05-19T14:47:08.572Z,32.75
2023-05-19T14:49:35.536Z,31.73
2023-05-19T14:52:02.533Z,31.29
2023-05-19T14:54:29.396Z,31.28
2023-05-19T14:56:56.347Z,31.84
2023-05-19T14:59:23.277Z,32.84
2023-05-19T15:01:50.200Z,33.32
2023-05-19T15:04:17.235Z,33.29
2023-05-19T15:06:45.177Z,33.51
2023-05-19T15:09:15.016Z,33.77
2023-05-19T15:11:42.047Z,34.02
2023-05-19T15:14:08.902Z,33.27
2023-05-19T15:16:35.956Z,33.58
2023-05-19T15:19:03.029Z,33.78
2023-05-19T15:21:29.925Z,33.62
2023-05-19T15:23:56.845Z,33.14
2023-05-19T15:26:23.755Z,32.75
2023-05-19T15:28:52.663Z,31.47
2023-05-19T15:31:19.612Z,31.69
2023-05-19T15:33:46.612Z,31.65
2023-05-19T15:36:16.665Z,30.58
2023-05-19T15:38:43.681Z,29.26
2023-05-19T15:41:11.172Z,29.24
2023-05-19T15:43:38.768Z,28.75
2023-05-19T15:46:05.815Z,28.04
2023-05-19T15:48:33.247Z,27.86
2023-05-19T15:51:00.334Z,27.90
2023-05-19T15:53:27.333Z,27.02
2023-05-19T15:55:54.378Z,27.31
2023-05-19T15:58:21.324Z,27.22
2023-05-19T16:00:48.398Z,27.32
2023-05-19T16:03:15.506Z,27.12
2023-05-19T16:05:42.559Z,26.75
2023-05-19T16:08:09.514Z,27.21
2023-05-19T16:10:36.460Z,27.30
2023-05-19T16:13:03.459Z,26.88
2023-05-19T16:15:30.562Z,27.19
2023-05-19T16:17:57.573Z,26.91
2023-05-19T16:20:27.926Z,26.95
2023-05-19T16:22:55.561Z,26.70
2023-05-19T16:25:22.878Z,26.63
2023-05-19T16:27:50.571Z,26.16
2023-05-19T16:30:17.625Z,25.97
2023-05-19T16:32:44.643Z,25.82
2023-05-19T16:35:11.793Z,25.59
2023-05-19T16:37:38.712Z,25.67
2023-05-19T16:40:06.298Z,25.30
2023-05-19T16:42:33.251Z,25.31
2023-05-19T16:45:00.148Z,25.14
2023-05-19T16:47:27.287Z,24.88
2023-05-19T16:49:54.262Z,24.66
2023-05-19T16:52:21.182Z,24.59
2023-05-19T16:54:48.109Z,24.54
2023-05-19T16:57:15.010Z,24.50
2023-05-19T16:59:42.245Z,24.43
2023-05-19T17:02:09.222Z,24.25
2023-05-19T17:04:36.249Z,23.90
2023-05-19T17:07:03.188Z,24.05
2023-05-19T17:09:30.096Z,23.97
2023-05-19T17:11:57.028Z,23.75
2023-05-19T17:14:23.941Z,23.60
2023-05-19T17:16:52.555Z,23.57
2023-05-19T17:19:19.632Z,23.37
2023-05-19T17:21:46.617Z,23.23
2023-05-19T17:24:13.548Z,23.18
2023-05-19T17:26:40.460Z,23.10
2023-05-19T17:29:07.406Z,23.00
2023-05-19T17:31:34.465Z,22.89
2023-05-19T17:34:01.338Z,22.82
2023-05-19T17:36:28.345Z,22.70
2023-05-19T17:38:55.332Z,22.57
2023-05-19T17:41:22.840Z,22.43
2023-05-19T17:43:49.876Z,22.31
2023-05-19T17:46:17.059Z,21.93
2023-05-19T17:48:44.035Z,21.71
2023-05-19T17:51:11.509Z,21.65
2023-05-19T17:53:39.025Z,21.68
2023-05-19T17:56:07.420Z,21.58
2023-05-19T17:58:34.671Z,21.58
2023-05-19T18:01:01.757Z,21.46
2023-05-19T18:03:29.073Z,21.50
2023-05-19T18:05:57.018Z,21.33
2023-05-19T18:08:24.236Z,21.37
2023-05-19T18:10:52.667Z,20.95
2023-05-19T18:13:19.677Z,20.91
2023-05-19T18:15:46.789Z,20.61
2023-05-19T18:18:13.846Z,20.75
2023-05-19T18:20:44.237Z,20.59
2023-05-19T18:23:11.423Z,20.61
2023-05-19T18:25:38.624Z,20.40
2023-05-19T18:28:05.662Z,20.33
2023-05-19T18:30:32.722Z,20.35
2023-05-19T18:33:03.594Z,20.22
2023-05-19T18:35:31.082Z,20.09
2023-05-19T18:37:58.096Z,19.96
2023-05-19T18:40:25.261Z,19.83
2023-05-19T18:42:52.366Z,19.78
2023-05-19T18:45:19.473Z,19.64
2023-05-19T18:47:46.812Z,19.57
2023-05-19T18:50:14.570Z,19.45
2023-05-19T18:52:41.625Z,19.22
2023-05-19T18:55:09.094Z,19.14
2023-05-19T18:57:36.091Z,19.20
2023-05-19T19:00:03.235Z,19.15
2023-05-19T19:02:30.202Z,19.00
2023-05-19T19:04:57.394Z,19.09
2023-05-19T19:07:25.665Z,18.96
2023-05-19T19:09:52.810Z,18.99
2023-05-19T19:12:20.362Z,18.99
2023-05-19T19:14:47.554Z,19.04
2023-05-19T19:17:14.734Z,18.98
2023-05-19T19:19:41.837Z,18.79
2023-05-19T19:22:08.880Z,18.82
2023-05-19T19:24:35.936Z,18.72
2023-05-19T19:27:03.080Z,18.65
2023-05-19T19:29:30.111Z,18.51
2023-05-19T19:31:57.212Z,18.40
2023-05-19T19:34:24.099Z,18.43
2023-05-19T19:36:51.189Z,18.30
2023-05-19T19:39:18.230Z,18.30
2023-05-19T19:41:45.348Z,18.31
2023-05-19T19:44:13.658Z,18.29
2023-05-19T19:46:41.453Z,18.03
2023-05-19T19:49:08.758Z,18.20
2023-05-19T19:51:35.743Z,18.09
2023-05-19T19:54:02.762Z,18.13
2023-05-19T19:56:29.741Z,18.13
2023-05-19T19:58:59.120Z,18.03
2023-05-19T20:01:27.874Z,17.83
2023-05-19T20:03:56.128Z,17.93
2023-05-19T20:06:23.538Z,17.87
2023-05-19T20:08:50.558Z,17.87
2023-05-19T20:11:17.547Z,17.80
2023-05-19T20:13:44.490Z,17.73
2023-05-19T20:16:11.520Z,17.76
2023-05-19T20:18:39.640Z,17.45
2023-05-19T20:21:06.615Z,17.49
2023-05-19T20:23:33.986Z,17.46
2023-05-19T20:26:11.999Z,17.50
2023-05-19T20:28:40.531Z,17.37
2023-05-19T20:31:07.586Z,17.45
2023-05-19T20:33:34.925Z,17.40
2023-05-19T20:36:02.192Z,17.49
2023-05-19T20:38:29.082Z,17.50
2023-05-19T20:40:55.951Z,17.44
2023-05-19T20:43:22.875Z,17.48
2023-05-19T20:45:49.941Z,17.51
2023-05-19T20:48:17.065Z,17.63
2023-05-19T20:50:44.235Z,17.54
2023-05-19T20:53:11.212Z,17.43
2023-05-19T20:55:39.141Z,17.54
2023-05-19T20:58:06.243Z,17.49
2023-05-19T21:00:33.487Z,17.54
2023-05-19T21:03:00.894Z,17.61
2023-05-19T21:05:27.986Z,17.60
2023-05-19T21:07:54.959Z,17.61
2023-05-19T21:10:21.961Z,17.60
2023-05-19T21:12:48.910Z,17.60
2023-05-19T21:15:15.913Z,17.66
2023-05-19T21:17:42.942Z,17.59
2023-05-19T21:20:10.459Z,17.54
2023-05-19T21:22:37.408Z,17.48
2023-05-19T21:25:04.852Z,17.36
2023-05-19T21:27:33.002Z,17.33
2023-05-19T21:30:00.218Z,17.18
2023-05-19T21:32:29.696Z,17.17
2023-05-19T21:34:56.819Z,17.16
2023-05-19T21:37:23.741Z,17.14
2023-05-19T21:39:50.820Z,17.09
2023-05-19T21:42:17.802Z,16.95
2023-05-19T21:44:44.678Z,16.86
2023-05-19T21:47:11.561Z,16.81
2023-05-19T21:49:40.148Z,16.70
2023-05-19T21:52:07.988Z,16.77
2023-05-19T21:54:36.163Z,16.72
2023-05-19T21:57:03.228Z,16.57
2023-05-19T21:59:30.712Z,16.66
2023-05-19T22:01:58.456Z,16.55
2023-05-19T22:04:25.672Z,16.52
2023-05-19T22:06:52.585Z,16.51
2023-05-19T22:09:19.622Z,16.40
2023-05-19T22:11:46.539Z,16.32
2023-05-19T22:14:13.904Z,16.32
2023-05-19T22:16:41.201Z,16.34
2023-05-19T22:19:08.303Z,16.20
2023-05-19T22:21:35.330Z,16.06
2023-05-19T22:24:02.546Z,16.13
2023-05-19T22:26:29.424Z,16.09
2023-05-19T22:28:56.672Z,16.02
2023-05-19T22:31:23.650Z,16.07
2023-05-19T22:33:50.718Z,16.05
2023-05-19T22:36:17.664Z,15.89
2023-05-19T22:38:44.688Z,15.97
2023-05-19T22:41:11.649Z,15.84
2023-05-19T22:43:38.714Z,15.95
2023-05-19T22:46:05.578Z,15.87
2023-05-19T22:48:32.500Z,15.71
2023-05-19T22:50:59.496Z,15.71
2023-05-19T22:53:26.362Z,15.81
2023-05-19T22:55:53.273Z,15.84
2023-05-19T22:58:20.171Z,15.84
2023-05-19T23:00:47.053Z,15.82
2023-05-19T23:03:14.023Z,15.83
2023-05-19T23:05:41.472Z,15.81
2023-05-19T23:08:08.333Z,15.65
2023-05-19T23:10:35.156Z,15.72
2023-05-19T23:13:02.241Z,15.58
2023-05-19T23:15:29.211Z,15.65
2023-05-19T23:17:56.114Z,15.48
2023-05-19T23:20:23.101Z,15.59
2023-05-19T23:22:50.014Z,15.54
2023-05-19T23:25:17.018Z,15.49
2023-05-19T23:27:43.984Z,15.49
2023-05-19T23:30:11.275Z,15.48
2023-05-19T23:32:38.551Z,15.25
2023-05-19T23:35:24.340Z,15.28
2023-05-19T23:37:51.325Z,15.10
2023-05-19T23:40:18.396Z,15.13
2023-05-19T23:42:45.335Z,15.01
2023-05-19T23:45:12.293Z,14.99
2023-05-19T23:47:39.352Z,14.87
2023-05-19T23:50:06.696Z,14.99
2023-05-19T23:52:33.823Z,14.87
2023-05-19T23:55:00.870Z,14.82
2023-05-19T23:57:27.810Z,14.68
2023-05-19T23:59:54.742Z,14.85
